createdAt,value
2023-03-22T00:03:27.848Z,70.41
2023-03-22T00:08:31.675Z,70.08
2023-03-22T00:13:37.255Z,70.44
2023-03-22T00:18:42.971Z,71.00
2023-03-22T00:23:46.444Z,73.28
2023-03-22T00:28:53.835Z,74.74
2023-03-22T00:33:59.537Z,76.87
2023-03-22T00:39:03.076Z,79.49
2023-03-22T00:44:10.088Z,78.79
2023-03-22T00:49:15.816Z,80.17
2023-03-22T00:54:19.657Z,81.45
2023-03-22T00:59:24.684Z,83.69
2023-03-22T01:04:28.145Z,83.83
2023-03-22T01:09:33.871Z,83.36
2023-03-22T01:14:38.873Z,84.16
2023-03-22T01:19:42.329Z,86.95
2023-03-22T01:24:46.082Z,83.96
2023-03-22T01:29:50.925Z,82.38
2023-03-22T01:34:57.526Z,77.24
2023-03-22T01:40:06.968Z,70.95
2023-03-22T01:45:34.868Z,72.20
2023-03-22T01:50:43.765Z,71.18
2023-03-22T01:55:54.478Z,70.16
2023-03-22T02:01:05.448Z,70.33
2023-03-22T02:06:24.278Z,68.38
2023-03-22T02:11:38.586Z,66.17
2023-03-22T02:16:57.463Z,64.42
2023-03-22T02:22:25.967Z,64.82
2023-03-22T02:27:41.668Z,65.04
2023-03-22T02:32:55.529Z,64.41
2023-03-22T02:38:23.044Z,62.39
2023-03-22T02:43:38.531Z,61.62
2023-03-22T02:48:48.364Z,60.94
2023-03-22T02:53:57.916Z,60.13
2023-03-22T02:59:06.383Z,60.37
2023-03-22T03:04:14.532Z,60.02
2023-03-22T03:09:19.849Z,59.70
2023-03-22T03:14:26.112Z,57.38
2023-03-22T03:19:38.488Z,57.31
2023-03-22T03:24:49.775Z,55.81
2023-03-22T03:30:02.624Z,54.51
2023-03-22T03:35:10.728Z,53.46
2023-03-22T03:40:16.844Z,52.98
2023-03-22T03:45:22.465Z,52.78
2023-03-22T03:50:31.309Z,52.12
2023-03-22T03:55:35.005Z,49.10
2023-03-22T04:00:40.341Z,48.05
2023-03-22T04:06:09.982Z,48.51
2023-03-22T04:11:18.798Z,47.18
2023-03-22T04:16:27.377Z,45.52
2023-03-22T04:21:33.663Z,46.00
2023-03-22T04:26:42.295Z,45.94
2023-03-22T04:31:58.751Z,47.10
2023-03-22T04:37:28.509Z,45.71
2023-03-22T04:42:44.823Z,45.86
2023-03-22T04:47:54.407Z,45.01
2023-03-22T04:52:58.497Z,44.74
2023-03-22T04:58:02.545Z,45.86
2023-03-22T05:03:08.032Z,44.13
2023-03-22T05:08:19.782Z,43.85
2023-03-22T05:13:27.069Z,43.36
2023-03-22T05:18:33.883Z,42.06
2023-03-22T05:23:37.491Z,40.78
2023-03-22T05:28:46.090Z,39.97
2023-03-22T05:34:09.770Z,40.64
2023-03-22T05:39:17.656Z,43.50
2023-03-22T05:44:21.543Z,42.95
2023-03-22T05:49:35.385Z,42.56
2023-03-22T05:54:42.216Z,42.66
2023-03-22T05:59:47.828Z,41.70
2023-03-22T06:04:59.996Z,40.64
2023-03-22T06:10:07.136Z,42.18
2023-03-22T06:15:13.408Z,44.02
2023-03-22T06:20:39.319Z,42.60
2023-03-22T06:26:01.343Z,41.75
2023-03-22T06:31:09.909Z,44.03
2023-03-22T06:36:28.815Z,41.01
2023-03-22T06:41:44.957Z,41.44
2023-03-22T06:46:49.142Z,43.09
2023-03-22T06:52:05.432Z,42.20
2023-03-22T06:57:10.357Z,43.07
2023-03-22T07:02:14.629Z,42.71
2023-03-22T07:07:28.369Z,39.78
2023-03-22T07:12:32.278Z,39.38
2023-03-22T07:17:40.354Z,38.25
2023-03-22T07:22:45.846Z,36.82
2023-03-22T07:27:51.213Z,39.10
2023-03-22T07:32:57.402Z,35.25
2023-03-22T07:38:03.147Z,36.34
2023-03-22T07:43:12.144Z,34.29
2023-03-22T07:48:41.149Z,32.26
2023-03-22T07:54:30.548Z,29.59
2023-03-22T07:59:39.152Z,29.40
2023-03-22T08:04:43.779Z,28.55
2023-03-22T08:09:54.044Z,28.80
2023-03-22T08:14:57.582Z,29.79
2023-03-22T08:20:08.483Z,29.42
2023-03-22T08:25:23.588Z,30.51
2023-03-22T08:30:31.882Z,29.93
2023-03-22T08:35:38.321Z,31.52
2023-03-22T08:40:43.312Z,31.31
2023-03-22T08:45:47.721Z,31.59
2023-03-22T08:50:56.108Z,29.35
2023-03-22T08:56:15.123Z,28.56
2023-03-22T09:01:28.987Z,27.69
2023-03-22T09:06:42.984Z,27.37
2023-03-22T09:11:50.666Z,27.03
2023-03-22T09:16:56.716Z,28.03
2023-03-22T09:22:01.111Z,25.59
2023-03-22T09:27:19.971Z,24.00
2023-03-22T09:32:23.692Z,24.71
2023-03-22T09:37:34.464Z,23.51
2023-03-22T09:42:42.566Z,24.52
2023-03-22T09:47:51.724Z,25.19
2023-03-22T09:52:55.509Z,23.97
2023-03-22T09:58:07.066Z,25.24
2023-03-22T10:03:21.093Z,24.37
2023-03-22T10:08:40.204Z,25.00
2023-03-22T10:13:52.208Z,23.11
2023-03-22T10:19:00.710Z,23.69
2023-03-22T10:24:10.455Z,25.25
2023-03-22T10:29:22.871Z,22.96
2023-03-22T10:34:31.089Z,22.67
2023-03-22T10:39:39.415Z,24.25
2023-03-22T10:44:50.285Z,23.60
2023-03-22T10:49:58.404Z,21.61
2023-03-22T10:55:10.610Z,26.38
2023-03-22T11:00:17.966Z,28.26
2023-03-22T11:05:24.541Z,27.28
2023-03-22T11:10:32.792Z,24.85
2023-03-22T11:15:40.799Z,23.70
2023-03-22T11:20:54.892Z,23.02
2023-03-22T11:26:06.173Z,23.55
2023-03-22T11:31:15.043Z,30.96
2023-03-22T11:36:19.627Z,22.51
2023-03-22T11:41:24.805Z,23.19
2023-03-22T11:46:30.857Z,29.53
2023-03-22T11:51:38.886Z,20.45
2023-03-22T11:56:44.636Z,19.18
2023-03-22T12:01:52.386Z,18.92
2023-03-22T12:07:02.575Z,19.64
2023-03-22T12:12:10.657Z,24.40
2023-03-22T12:17:20.174Z,20.13
2023-03-22T12:22:28.351Z,19.75
2023-03-22T12:27:35.359Z,21.42
2023-03-22T12:32:43.461Z,25.52
2023-03-22T12:37:50.435Z,23.42
2023-03-22T12:43:01.758Z,21.04
2023-03-22T12:48:15.421Z,19.22
2023-03-22T12:53:23.858Z,19.00
2023-03-22T12:58:27.655Z,18.11
2023-03-22T13:03:39.286Z,17.86
2023-03-22T13:09:18.377Z,16.63
2023-03-22T13:14:43.115Z,17.42
2023-03-22T13:19:55.441Z,17.52
2023-03-22T13:25:00.184Z,16.59
2023-03-22T13:30:08.144Z,17.05
2023-03-22T13:35:23.797Z,29.48
2023-03-22T13:40:31.059Z,17.56
2023-03-22T13:45:35.289Z,17.92
2023-03-22T13:50:41.077Z,19.04
2023-03-22T13:55:59.196Z,19.70
2023-03-22T14:01:07.325Z,17.36
2023-03-22T14:06:17.451Z,37.06
2023-03-22T14:11:26.332Z,19.84
2023-03-22T14:16:37.842Z,19.11
2023-03-22T14:21:44.649Z,17.77
